Terminal Aerodrome Forecast
Issued by NWS

Home | Current Version | Previous Version | Text Only | Print | Product List | Glossary On
Versions: 1 2 3 4 5 6 7 8 9 10 11 12
427
FTUS44 KSJT 082326
TAFJCT
TAF
KJCT 082326Z 0900/0924 31003KT P6SM SCT250
     FM091800 28008KT P6SM FEW250=

USA.gov is the U.S. government's official web portal to all federal, state and local government web resources and services.